sensor_id;sensor_type;location;lat;lon;timestamp;P1;durP1;ratioP1;P2;durP2;ratioP2
24961;SDS011;12992;50.884;13.668;2023-04-06T00:01:09;5.03;;;2.30;;
24961;SDS011;12992;50.884;13.668;2023-04-06T00:03:35;3.40;;;2.30;;
24961;SDS011;12992;50.884;13.668;2023-04-06T00:06:01;5.15;;;2.33;;
24961;SDS011;12992;50.884;13.668;2023-04-06T00:08:26;4.80;;;2.17;;
24961;SDS011;12992;50.884;13.668;2023-04-06T00:10:51;3.00;;;2.20;;
24961;SDS011;12992;50.884;13.668;2023-04-06T00:13:17;3.78;;;2.30;;
24961;SDS011;12992;50.884;13.668;2023-04-06T00:15:42;3.63;;;2.33;;
24961;SDS011;12992;50.884;13.668;2023-04-06T00:18:08;4.10;;;2.35;;
24961;SDS011;12992;50.884;13.668;2023-04-06T00:20:33;4.70;;;2.58;;
24961;SDS011;12992;50.884;13.668;2023-04-06T00:22:58;5.35;;;2.40;;
24961;SDS011;12992;50.884;13.668;2023-04-06T00:25:24;3.67;;;2.40;;
24961;SDS011;12992;50.884;13.668;2023-04-06T00:27:49;2.88;;;2.20;;
24961;SDS011;12992;50.884;13.668;2023-04-06T00:30:14;3.63;;;2.20;;
24961;SDS011;12992;50.884;13.668;2023-04-06T00:32:40;2.95;;;2.13;;
24961;SDS011;12992;50.884;13.668;2023-04-06T00:35:06;3.50;;;2.40;;
24961;SDS011;12992;50.884;13.668;2023-04-06T00:37:31;3.60;;;2.40;;
24961;SDS011;12992;50.884;13.668;2023-04-06T00:39:57;3.47;;;2.35;;
24961;SDS011;12992;50.884;13.668;2023-04-06T00:42:23;2.95;;;2.28;;
24961;SDS011;12992;50.884;13.668;2023-04-06T00:44:52;2.75;;;2.15;;
24961;SDS011;12992;50.884;13.668;2023-04-06T00:47:22;5.38;;;2.40;;
24961;SDS011;12992;50.884;13.668;2023-04-06T00:49:48;3.70;;;2.15;;
24961;SDS011;12992;50.884;13.668;2023-04-06T00:52:14;2.92;;;2.03;;
24961;SDS011;12992;50.884;13.668;2023-04-06T00:54:43;3.67;;;2.08;;
24961;SDS011;12992;50.884;13.668;2023-04-06T00:57:11;4.20;;;2.30;;
24961;SDS011;12992;50.884;13.668;2023-04-06T00:59:38;3.08;;;2.05;;
24961;SDS011;12992;50.884;13.668;2023-04-06T01:02:06;3.05;;;2.08;;
24961;SDS011;12992;50.884;13.668;2023-04-06T01:07:07;2.42;;;1.95;;
24961;SDS011;12992;50.884;13.668;2023-04-06T01:09:40;2.75;;;1.80;;
24961;SDS011;12992;50.884;13.668;2023-04-06T01:12:13;2.63;;;1.95;;
24961;SDS011;12992;50.884;13.668;2023-04-06T01:14:39;3.38;;;2.17;;
24961;SDS011;12992;50.884;13.668;2023-04-06T01:17:05;5.07;;;2.33;;
24961;SDS011;12992;50.884;13.668;2023-04-06T01:19:32;4.57;;;2.17;;
24961;SDS011;12992;50.884;13.668;2023-04-06T01:21:58;4.93;;;2.70;;
24961;SDS011;12992;50.884;13.668;2023-04-06T01:24:46;3.45;;;2.20;;
24961;SDS011;12992;50.884;13.668;2023-04-06T01:27:26;3.15;;;2.30;;
24961;SDS011;12992;50.884;13.668;2023-04-06T01:30:13;3.90;;;2.85;;
24961;SDS011;12992;50.884;13.668;2023-04-06T01:32:46;3.47;;;2.42;;
24961;SDS011;12992;50.884;13.668;2023-04-06T01:35:15;4.22;;;2.35;;
24961;SDS011;12992;50.884;13.668;2023-04-06T01:37:49;5.78;;;2.85;;
24961;SDS011;12992;50.884;13.668;2023-04-06T01:40:22;4.18;;;2.72;;
24961;SDS011;12992;50.884;13.668;2023-04-06T01:42:50;3.63;;;2.30;;
24961;SDS011;12992;50.884;13.668;2023-04-06T01:45:24;3.35;;;2.20;;
24961;SDS011;12992;50.884;13.668;2023-04-06T01:47:52;2.95;;;2.13;;
24961;SDS011;12992;50.884;13.668;2023-04-06T01:50:21;3.75;;;2.20;;
24961;SDS011;12992;50.884;13.668;2023-04-06T01:52:46;3.85;;;2.75;;
24961;SDS011;12992;50.884;13.668;2023-04-06T01:55:12;5.13;;;3.08;;
24961;SDS011;12992;50.884;13.668;2023-04-06T01:58:00;6.63;;;3.00;;
24961;SDS011;12992;50.884;13.668;2023-04-06T02:02:58;4.15;;;3.05;;
24961;SDS011;12992;50.884;13.668;2023-04-06T02:05:27;3.85;;;2.55;;
24961;SDS011;12992;50.884;13.668;2023-04-06T02:07:54;4.95;;;2.70;;
24961;SDS011;12992;50.884;13.668;2023-04-06T02:10:29;4.80;;;3.05;;
24961;SDS011;12992;50.884;13.668;2023-04-06T02:12:56;3.78;;;2.75;;
24961;SDS011;12992;50.884;13.668;2023-04-06T02:15:25;5.78;;;2.97;;
24961;SDS011;12992;50.884;13.668;2023-04-06T02:17:51;3.38;;;2.70;;
24961;SDS011;12992;50.884;13.668;2023-04-06T02:20:16;5.00;;;3.47;;
24961;SDS011;12992;50.884;13.668;2023-04-06T02:22:41;15.35;;;11.70;;
24961;SDS011;12992;50.884;13.668;2023-04-06T02:25:07;9.82;;;7.00;;
24961;SDS011;12992;50.884;13.668;2023-04-06T02:27:32;5.40;;;4.45;;
24961;SDS011;12992;50.884;13.668;2023-04-06T02:29:58;5.85;;;4.50;;
24961;SDS011;12992;50.884;13.668;2023-04-06T02:32:23;5.38;;;3.55;;
24961;SDS011;12992;50.884;13.668;2023-04-06T02:34:50;6.15;;;3.10;;
24961;SDS011;12992;50.884;13.668;2023-04-06T02:37:18;5.85;;;4.40;;
24961;SDS011;12992;50.884;13.668;2023-04-06T02:39:43;5.97;;;3.47;;
24961;SDS011;12992;50.884;13.668;2023-04-06T02:42:08;6.13;;;3.10;;
24961;SDS011;12992;50.884;13.668;2023-04-06T02:44:34;5.35;;;4.10;;
24961;SDS011;12992;50.884;13.668;2023-04-06T02:47:00;6.00;;;3.58;;
24961;SDS011;12992;50.884;13.668;2023-04-06T02:49:26;4.72;;;3.28;;
24961;SDS011;12992;50.884;13.668;2023-04-06T02:51:54;5.03;;;3.40;;
24961;SDS011;12992;50.884;13.668;2023-04-06T02:54:24;7.70;;;3.72;;
24961;SDS011;12992;50.884;13.668;2023-04-06T02:56:49;6.93;;;3.90;;
24961;SDS011;12992;50.884;13.668;2023-04-06T02:59:16;6.32;;;4.20;;
24961;SDS011;12992;50.884;13.668;2023-04-06T03:01:48;5.30;;;3.80;;
24961;SDS011;12992;50.884;13.668;2023-04-06T03:04:13;5.13;;;3.40;;
24961;SDS011;12992;50.884;13.668;2023-04-06T03:06:39;5.10;;;3.25;;
24961;SDS011;12992;50.884;13.668;2023-04-06T03:09:17;6.57;;;3.78;;
24961;SDS011;12992;50.884;13.668;2023-04-06T03:11:43;7.38;;;3.58;;
24961;SDS011;12992;50.884;13.668;2023-04-06T03:14:08;5.53;;;3.70;;
24961;SDS011;12992;50.884;13.668;2023-04-06T03:16:34;5.07;;;3.28;;
24961;SDS011;12992;50.884;13.668;2023-04-06T03:19:00;5.40;;;3.20;;
24961;SDS011;12992;50.884;13.668;2023-04-06T03:21:26;7.43;;;3.60;;
24961;SDS011;12992;50.884;13.668;2023-04-06T03:23:52;11.18;;;5.07;;
24961;SDS011;12992;50.884;13.668;2023-04-06T03:26:18;93.10;;;42.83;;
24961;SDS011;12992;50.884;13.668;2023-04-06T03:28:43;40.60;;;20.23;;
24961;SDS011;12992;50.884;13.668;2023-04-06T03:31:09;13.43;;;7.28;;
24961;SDS011;12992;50.884;13.668;2023-04-06T03:33:43;8.57;;;4.85;;
24961;SDS011;12992;50.884;13.668;2023-04-06T03:36:13;7.47;;;4.35;;
24961;SDS011;12992;50.884;13.668;2023-04-06T03:38:41;5.53;;;3.90;;
24961;SDS011;12992;50.884;13.668;2023-04-06T03:41:10;16.95;;;8.55;;
24961;SDS011;12992;50.884;13.668;2023-04-06T03:43:37;9.38;;;5.60;;
24961;SDS011;12992;50.884;13.668;2023-04-06T03:46:03;23.73;;;11.88;;
24961;SDS011;12992;50.884;13.668;2023-04-06T03:48:28;10.95;;;5.35;;
24961;SDS011;12992;50.884;13.668;2023-04-06T03:50:53;10.23;;;5.88;;
24961;SDS011;12992;50.884;13.668;2023-04-06T03:53:19;8.95;;;5.50;;
24961;SDS011;12992;50.884;13.668;2023-04-06T03:55:44;10.00;;;6.28;;
24961;SDS011;12992;50.884;13.668;2023-04-06T03:58:10;13.38;;;6.50;;
24961;SDS011;12992;50.884;13.668;2023-04-06T04:00:35;11.25;;;5.68;;
24961;SDS011;12992;50.884;13.668;2023-04-06T04:03:00;10.27;;;5.78;;
24961;SDS011;12992;50.884;13.668;2023-04-06T04:05:27;25.23;;;12.27;;
24961;SDS011;12992;50.884;13.668;2023-04-06T04:07:52;20.50;;;9.27;;
24961;SDS011;12992;50.884;13.668;2023-04-06T04:10:21;20.95;;;10.75;;
24961;SDS011;12992;50.884;13.668;2023-04-06T04:12:46;10.88;;;4.78;;
24961;SDS011;12992;50.884;13.668;2023-04-06T04:15:11;12.07;;;6.47;;
24961;SDS011;12992;50.884;13.668;2023-04-06T04:17:37;6.65;;;4.80;;
24961;SDS011;12992;50.884;13.668;2023-04-06T04:20:02;7.95;;;4.95;;
24961;SDS011;12992;50.884;13.668;2023-04-06T04:22:27;10.90;;;6.20;;
24961;SDS011;12992;50.884;13.668;2023-04-06T04:24:53;16.83;;;8.45;;
24961;SDS011;12992;50.884;13.668;2023-04-06T04:27:19;10.55;;;6.43;;
24961;SDS011;12992;50.884;13.668;2023-04-06T04:29:46;47.40;;;23.40;;
24961;SDS011;12992;50.884;13.668;2023-04-06T04:32:12;117.00;;;46.05;;
24961;SDS011;12992;50.884;13.668;2023-04-06T04:34:37;187.57;;;73.10;;
24961;SDS011;12992;50.884;13.668;2023-04-06T04:37:06;42.03;;;20.65;;
24961;SDS011;12992;50.884;13.668;2023-04-06T04:39:45;14.02;;;5.78;;
24961;SDS011;12992;50.884;13.668;2023-04-06T04:42:10;12.93;;;6.97;;
24961;SDS011;12992;50.884;13.668;2023-04-06T04:44:42;6.13;;;4.35;;
24961;SDS011;12992;50.884;13.668;2023-04-06T04:47:08;6.78;;;4.18;;
24961;SDS011;12992;50.884;13.668;2023-04-06T04:49:41;8.05;;;5.05;;
24961;SDS011;12992;50.884;13.668;2023-04-06T04:52:06;7.53;;;5.15;;
24961;SDS011;12992;50.884;13.668;2023-04-06T04:54:42;10.73;;;5.28;;
24961;SDS011;12992;50.884;13.668;2023-04-06T04:57:13;8.27;;;5.28;;
24961;SDS011;12992;50.884;13.668;2023-04-06T04:59:42;35.13;;;19.45;;
24961;SDS011;12992;50.884;13.668;2023-04-06T05:02:17;10.75;;;5.72;;
24961;SDS011;12992;50.884;13.668;2023-04-06T05:04:52;49.65;;;20.55;;
24961;SDS011;12992;50.884;13.668;2023-04-06T05:07:22;15.98;;;7.45;;
24961;SDS011;12992;50.884;13.668;2023-04-06T05:09:50;13.57;;;8.10;;
24961;SDS011;12992;50.884;13.668;2023-04-06T05:12:16;14.13;;;8.80;;
24961;SDS011;12992;50.884;13.668;2023-04-06T05:14:51;18.17;;;11.10;;
24961;SDS011;12992;50.884;13.668;2023-04-06T05:17:18;12.15;;;7.13;;
24961;SDS011;12992;50.884;13.668;2023-04-06T05:19:43;25.80;;;15.48;;
24961;SDS011;12992;50.884;13.668;2023-04-06T05:22:10;17.08;;;9.80;;
24961;SDS011;12992;50.884;13.668;2023-04-06T05:24:39;12.10;;;6.88;;
24961;SDS011;12992;50.884;13.668;2023-04-06T05:27:06;8.05;;;5.43;;
24961;SDS011;12992;50.884;13.668;2023-04-06T05:29:31;11.90;;;5.47;;
24961;SDS011;12992;50.884;13.668;2023-04-06T05:31:57;8.23;;;5.35;;
24961;SDS011;12992;50.884;13.668;2023-04-06T05:34:23;9.90;;;5.25;;
24961;SDS011;12992;50.884;13.668;2023-04-06T05:36:49;10.07;;;6.15;;
24961;SDS011;12992;50.884;13.668;2023-04-06T05:39:19;9.85;;;5.60;;
24961;SDS011;12992;50.884;13.668;2023-04-06T05:41:49;9.98;;;5.32;;
24961;SDS011;12992;50.884;13.668;2023-04-06T05:44:17;6.90;;;5.13;;
24961;SDS011;12992;50.884;13.668;2023-04-06T05:46:47;8.40;;;5.80;;
24961;SDS011;12992;50.884;13.668;2023-04-06T05:49:15;8.98;;;5.43;;
24961;SDS011;12992;50.884;13.668;2023-04-06T05:51:40;9.23;;;5.05;;
24961;SDS011;12992;50.884;13.668;2023-04-06T05:54:06;10.70;;;6.20;;
24961;SDS011;12992;50.884;13.668;2023-04-06T05:56:32;8.55;;;5.28;;
24961;SDS011;12992;50.884;13.668;2023-04-06T05:58:59;9.40;;;5.40;;
24961;SDS011;12992;50.884;13.668;2023-04-06T06:01:27;9.85;;;5.20;;
24961;SDS011;12992;50.884;13.668;2023-04-06T06:03:54;10.68;;;6.18;;
24961;SDS011;12992;50.884;13.668;2023-04-06T06:06:20;13.32;;;6.43;;
24961;SDS011;12992;50.884;13.668;2023-04-06T06:09:05;16.08;;;7.53;;
24961;SDS011;12992;50.884;13.668;2023-04-06T06:11:35;26.80;;;13.68;;
24961;SDS011;12992;50.884;13.668;2023-04-06T06:14:02;36.15;;;17.50;;
24961;SDS011;12992;50.884;13.668;2023-04-06T06:16:31;66.25;;;31.38;;
24961;SDS011;12992;50.884;13.668;2023-04-06T06:18:57;41.92;;;20.70;;
24961;SDS011;12992;50.884;13.668;2023-04-06T06:21:22;15.98;;;9.82;;
24961;SDS011;12992;50.884;13.668;2023-04-06T06:23:48;21.55;;;10.27;;
24961;SDS011;12992;50.884;13.668;2023-04-06T06:26:17;21.15;;;9.75;;
24961;SDS011;12992;50.884;13.668;2023-04-06T06:28:42;16.77;;;8.80;;
24961;SDS011;12992;50.884;13.668;2023-04-06T06:31:11;7.50;;;5.22;;
24961;SDS011;12992;50.884;13.668;2023-04-06T06:33:37;7.70;;;4.85;;
24961;SDS011;12992;50.884;13.668;2023-04-06T06:36:02;7.35;;;4.88;;
24961;SDS011;12992;50.884;13.668;2023-04-06T06:38:29;7.85;;;5.47;;
24961;SDS011;12992;50.884;13.668;2023-04-06T06:40:54;6.32;;;4.43;;
24961;SDS011;12992;50.884;13.668;2023-04-06T06:43:22;6.45;;;4.05;;
24961;SDS011;12992;50.884;13.668;2023-04-06T06:46:07;6.82;;;4.35;;
24961;SDS011;12992;50.884;13.668;2023-04-06T06:48:32;6.72;;;4.43;;
24961;SDS011;12992;50.884;13.668;2023-04-06T06:50:58;8.90;;;5.15;;
24961;SDS011;12992;50.884;13.668;2023-04-06T06:53:23;43.45;;;23.52;;
24961;SDS011;12992;50.884;13.668;2023-04-06T06:55:49;7.78;;;5.35;;
24961;SDS011;12992;50.884;13.668;2023-04-06T06:58:14;8.50;;;4.70;;
24961;SDS011;12992;50.884;13.668;2023-04-06T07:00:40;9.45;;;5.05;;
24961;SDS011;12992;50.884;13.668;2023-04-06T07:03:06;5.75;;;3.95;;
24961;SDS011;12992;50.884;13.668;2023-04-06T07:05:32;7.13;;;4.50;;
24961;SDS011;12992;50.884;13.668;2023-04-06T07:07:57;11.23;;;7.53;;
24961;SDS011;12992;50.884;13.668;2023-04-06T07:10:24;8.15;;;4.93;;
24961;SDS011;12992;50.884;13.668;2023-04-06T07:12:50;6.15;;;4.60;;
24961;SDS011;12992;50.884;13.668;2023-04-06T07:15:16;5.57;;;3.45;;
24961;SDS011;12992;50.884;13.668;2023-04-06T07:17:43;10.25;;;4.65;;
24961;SDS011;12992;50.884;13.668;2023-04-06T07:20:11;6.75;;;4.13;;
24961;SDS011;12992;50.884;13.668;2023-04-06T07:22:37;6.00;;;4.05;;
24961;SDS011;12992;50.884;13.668;2023-04-06T07:25:03;12.23;;;4.00;;
24961;SDS011;12992;50.884;13.668;2023-04-06T07:27:29;5.95;;;3.72;;
24961;SDS011;12992;50.884;13.668;2023-04-06T07:29:54;7.30;;;3.90;;
24961;SDS011;12992;50.884;13.668;2023-04-06T07:32:20;5.47;;;4.10;;
24961;SDS011;12992;50.884;13.668;2023-04-06T07:34:45;4.13;;;3.33;;
24961;SDS011;12992;50.884;13.668;2023-04-06T07:37:12;4.88;;;3.75;;
24961;SDS011;12992;50.884;13.668;2023-04-06T07:39:37;8.23;;;3.90;;
24961;SDS011;12992;50.884;13.668;2023-04-06T07:42:03;7.07;;;4.60;;
24961;SDS011;12992;50.884;13.668;2023-04-06T07:44:28;5.07;;;4.10;;
24961;SDS011;12992;50.884;13.668;2023-04-06T07:46:54;5.78;;;3.47;;
24961;SDS011;12992;50.884;13.668;2023-04-06T07:49:21;5.53;;;3.75;;
24961;SDS011;12992;50.884;13.668;2023-04-06T07:51:48;7.35;;;4.10;;
24961;SDS011;12992;50.884;13.668;2023-04-06T07:54:13;5.80;;;3.95;;
24961;SDS011;12992;50.884;13.668;2023-04-06T07:56:39;8.20;;;4.45;;
24961;SDS011;12992;50.884;13.668;2023-04-06T07:59:04;6.43;;;4.20;;
24961;SDS011;12992;50.884;13.668;2023-04-06T08:01:29;5.65;;;4.30;;
24961;SDS011;12992;50.884;13.668;2023-04-06T08:03:55;6.25;;;5.03;;
24961;SDS011;12992;50.884;13.668;2023-04-06T08:06:21;7.03;;;4.18;;
24961;SDS011;12992;50.884;13.668;2023-04-06T08:08:47;6.25;;;4.00;;
24961;SDS011;12992;50.884;13.668;2023-04-06T08:11:12;5.22;;;3.95;;
24961;SDS011;12992;50.884;13.668;2023-04-06T08:13:37;6.78;;;4.45;;
24961;SDS011;12992;50.884;13.668;2023-04-06T08:16:03;5.75;;;3.85;;
24961;SDS011;12992;50.884;13.668;2023-04-06T08:18:28;7.50;;;3.95;;
24961;SDS011;12992;50.884;13.668;2023-04-06T08:20:55;5.30;;;4.05;;
24961;SDS011;12992;50.884;13.668;2023-04-06T08:23:20;5.82;;;4.50;;
24961;SDS011;12992;50.884;13.668;2023-04-06T08:25:46;4.80;;;4.28;;
24961;SDS011;12992;50.884;13.668;2023-04-06T08:28:11;7.75;;;6.35;;
24961;SDS011;12992;50.884;13.668;2023-04-06T08:30:39;6.53;;;4.10;;
24961;SDS011;12992;50.884;13.668;2023-04-06T08:33:05;4.60;;;3.90;;
24961;SDS011;12992;50.884;13.668;2023-04-06T08:35:30;6.18;;;4.10;;
24961;SDS011;12992;50.884;13.668;2023-04-06T08:37:56;5.30;;;3.88;;
24961;SDS011;12992;50.884;13.668;2023-04-06T08:40:22;6.25;;;3.50;;
24961;SDS011;12992;50.884;13.668;2023-04-06T08:42:49;7.53;;;3.65;;
24961;SDS011;12992;50.884;13.668;2023-04-06T08:45:19;4.38;;;3.42;;
24961;SDS011;12992;50.884;13.668;2023-04-06T08:47:46;5.35;;;3.60;;
24961;SDS011;12992;50.884;13.668;2023-04-06T08:50:13;6.78;;;3.28;;
24961;SDS011;12992;50.884;13.668;2023-04-06T08:52:39;4.03;;;3.30;;
24961;SDS011;12992;50.884;13.668;2023-04-06T08:55:05;6.03;;;3.58;;
24961;SDS011;12992;50.884;13.668;2023-04-06T08:57:31;4.43;;;3.30;;
24961;SDS011;12992;50.884;13.668;2023-04-06T08:59:56;5.28;;;3.85;;
24961;SDS011;12992;50.884;13.668;2023-04-06T09:02:22;4.88;;;3.67;;
24961;SDS011;12992;50.884;13.668;2023-04-06T09:04:49;5.07;;;3.55;;
24961;SDS011;12992;50.884;13.668;2023-04-06T09:07:18;4.72;;;3.72;;
24961;SDS011;12992;50.884;13.668;2023-04-06T09:09:43;4.25;;;3.33;;
24961;SDS011;12992;50.884;13.668;2023-04-06T09:12:28;5.72;;;3.90;;
24961;SDS011;12992;50.884;13.668;2023-04-06T09:14:55;4.93;;;3.25;;
24961;SDS011;12992;50.884;13.668;2023-04-06T09:17:22;4.45;;;3.58;;
24961;SDS011;12992;50.884;13.668;2023-04-06T09:19:48;3.92;;;3.50;;
24961;SDS011;12992;50.884;13.668;2023-04-06T09:22:14;4.30;;;3.10;;
24961;SDS011;12992;50.884;13.668;2023-04-06T09:24:50;4.35;;;3.30;;
24961;SDS011;12992;50.884;13.668;2023-04-06T09:27:17;6.00;;;3.20;;
24961;SDS011;12992;50.884;13.668;2023-04-06T09:30:01;4.40;;;3.55;;
24961;SDS011;12992;50.884;13.668;2023-04-06T09:32:50;4.72;;;3.42;;
24961;SDS011;12992;50.884;13.668;2023-04-06T09:35:20;4.75;;;3.38;;
24961;SDS011;12992;50.884;13.668;2023-04-06T09:37:47;6.85;;;4.13;;
24961;SDS011;12992;50.884;13.668;2023-04-06T09:40:13;6.18;;;4.00;;
24961;SDS011;12992;50.884;13.668;2023-04-06T09:42:40;5.20;;;3.60;;
24961;SDS011;12992;50.884;13.668;2023-04-06T09:45:07;5.47;;;4.20;;
24961;SDS011;12992;50.884;13.668;2023-04-06T09:47:33;5.35;;;4.47;;
24961;SDS011;12992;50.884;13.668;2023-04-06T09:50:01;5.68;;;4.30;;
24961;SDS011;12992;50.884;13.668;2023-04-06T09:52:35;6.93;;;4.20;;
24961;SDS011;12992;50.884;13.668;2023-04-06T09:55:13;5.35;;;3.70;;
24961;SDS011;12992;50.884;13.668;2023-04-06T09:58:04;5.75;;;3.75;;
24961;SDS011;12992;50.884;13.668;2023-04-06T10:00:32;15.65;;;3.90;;
24961;SDS011;12992;50.884;13.668;2023-04-06T10:08:05;5.00;;;3.78;;
24961;SDS011;12992;50.884;13.668;2023-04-06T10:10:33;5.50;;;3.70;;
24961;SDS011;12992;50.884;13.668;2023-04-06T10:12:59;5.93;;;3.83;;
24961;SDS011;12992;50.884;13.668;2023-04-06T10:15:25;4.15;;;3.75;;
24961;SDS011;12992;50.884;13.668;2023-04-06T10:17:50;4.90;;;4.18;;
24961;SDS011;12992;50.884;13.668;2023-04-06T10:25:55;6.97;;;4.03;;
24961;SDS011;12992;50.884;13.668;2023-04-06T10:28:22;4.32;;;3.70;;
24961;SDS011;12992;50.884;13.668;2023-04-06T10:30:48;4.45;;;3.38;;
24961;SDS011;12992;50.884;13.668;2023-04-06T10:33:14;5.65;;;3.47;;
24961;SDS011;12992;50.884;13.668;2023-04-06T10:35:41;4.60;;;3.85;;
24961;SDS011;12992;50.884;13.668;2023-04-06T10:38:06;3.83;;;3.42;;
24961;SDS011;12992;50.884;13.668;2023-04-06T10:40:35;5.38;;;3.72;;
24961;SDS011;12992;50.884;13.668;2023-04-06T10:43:08;4.60;;;4.00;;
24961;SDS011;12992;50.884;13.668;2023-04-06T10:45:35;4.57;;;3.80;;
24961;SDS011;12992;50.884;13.668;2023-04-06T10:48:00;6.10;;;3.95;;
24961;SDS011;12992;50.884;13.668;2023-04-06T10:50:37;8.63;;;4.85;;
24961;SDS011;12992;50.884;13.668;2023-04-06T10:53:03;5.53;;;3.95;;
24961;SDS011;12992;50.884;13.668;2023-04-06T10:55:28;16.05;;;7.03;;
24961;SDS011;12992;50.884;13.668;2023-04-06T10:57:54;5.53;;;4.30;;
24961;SDS011;12992;50.884;13.668;2023-04-06T11:00:20;6.50;;;4.22;;
24961;SDS011;12992;50.884;13.668;2023-04-06T11:02:45;6.03;;;3.97;;
24961;SDS011;12992;50.884;13.668;2023-04-06T11:05:11;66.35;;;17.42;;
24961;SDS011;12992;50.884;13.668;2023-04-06T11:07:39;9.93;;;5.43;;
24961;SDS011;12992;50.884;13.668;2023-04-06T11:10:04;5.15;;;3.85;;
24961;SDS011;12992;50.884;13.668;2023-04-06T11:12:30;7.22;;;4.10;;
24961;SDS011;12992;50.884;13.668;2023-04-06T11:14:59;5.63;;;3.97;;
24961;SDS011;12992;50.884;13.668;2023-04-06T11:17:35;8.90;;;4.75;;
24961;SDS011;12992;50.884;13.668;2023-04-06T11:20:02;15.07;;;6.78;;
24961;SDS011;12992;50.884;13.668;2023-04-06T11:22:30;28.63;;;9.77;;
24961;SDS011;12992;50.884;13.668;2023-04-06T11:25:08;7.65;;;4.63;;
24961;SDS011;12992;50.884;13.668;2023-04-06T11:27:34;5.07;;;3.80;;
24961;SDS011;12992;50.884;13.668;2023-04-06T11:30:01;6.25;;;3.75;;
24961;SDS011;12992;50.884;13.668;2023-04-06T11:32:27;4.93;;;3.47;;
24961;SDS011;12992;50.884;13.668;2023-04-06T11:34:52;5.47;;;4.50;;
24961;SDS011;12992;50.884;13.668;2023-04-06T11:37:18;4.30;;;3.42;;
24961;SDS011;12992;50.884;13.668;2023-04-06T11:39:48;3.67;;;3.30;;
24961;SDS011;12992;50.884;13.668;2023-04-06T11:42:22;4.45;;;3.58;;
24961;SDS011;12992;50.884;13.668;2023-04-06T11:44:51;5.25;;;3.88;;
24961;SDS011;12992;50.884;13.668;2023-04-06T11:47:19;4.07;;;3.40;;
24961;SDS011;12992;50.884;13.668;2023-04-06T11:49:47;4.47;;;3.58;;
24961;SDS011;12992;50.884;13.668;2023-04-06T11:54:48;5.05;;;3.83;;
24961;SDS011;12992;50.884;13.668;2023-04-06T11:57:15;4.95;;;3.70;;
24961;SDS011;12992;50.884;13.668;2023-04-06T11:59:41;4.10;;;3.53;;
24961;SDS011;12992;50.884;13.668;2023-04-06T12:02:07;5.30;;;3.70;;
24961;SDS011;12992;50.884;13.668;2023-04-06T12:04:32;3.67;;;3.20;;
24961;SDS011;12992;50.884;13.668;2023-04-06T12:06:58;4.35;;;3.20;;
24961;SDS011;12992;50.884;13.668;2023-04-06T12:09:23;5.50;;;3.60;;
24961;SDS011;12992;50.884;13.668;2023-04-06T12:11:49;5.43;;;4.18;;
24961;SDS011;12992;50.884;13.668;2023-04-06T12:14:14;7.10;;;4.22;;
24961;SDS011;12992;50.884;13.668;2023-04-06T12:16:40;6.28;;;4.40;;
24961;SDS011;12992;50.884;13.668;2023-04-06T12:19:05;5.18;;;4.07;;
24961;SDS011;12992;50.884;13.668;2023-04-06T12:21:31;6.28;;;3.97;;
24961;SDS011;12992;50.884;13.668;2023-04-06T12:23:58;3.78;;;3.40;;
24961;SDS011;12992;50.884;13.668;2023-04-06T12:26:25;6.40;;;3.90;;
24961;SDS011;12992;50.884;13.668;2023-04-06T12:28:51;5.10;;;4.00;;
24961;SDS011;12992;50.884;13.668;2023-04-06T12:31:17;4.18;;;3.65;;
24961;SDS011;12992;50.884;13.668;2023-04-06T12:33:43;4.30;;;3.70;;
24961;SDS011;12992;50.884;13.668;2023-04-06T12:36:14;4.32;;;3.75;;
24961;SDS011;12992;50.884;13.668;2023-04-06T12:38:43;5.00;;;3.53;;
24961;SDS011;12992;50.884;13.668;2023-04-06T12:41:10;4.93;;;3.58;;
24961;SDS011;12992;50.884;13.668;2023-04-06T12:43:36;5.57;;;3.60;;
24961;SDS011;12992;50.884;13.668;2023-04-06T12:46:01;5.03;;;3.80;;
24961;SDS011;12992;50.884;13.668;2023-04-06T12:48:26;4.78;;;3.65;;
24961;SDS011;12992;50.884;13.668;2023-04-06T12:50:59;5.47;;;3.70;;
24961;SDS011;12992;50.884;13.668;2023-04-06T12:53:26;6.20;;;3.17;;
24961;SDS011;12992;50.884;13.668;2023-04-06T12:55:53;4.70;;;3.55;;
24961;SDS011;12992;50.884;13.668;2023-04-06T12:58:19;4.68;;;3.60;;
24961;SDS011;12992;50.884;13.668;2023-04-06T13:00:44;6.18;;;3.38;;
24961;SDS011;12992;50.884;13.668;2023-04-06T13:03:10;4.38;;;3.60;;
24961;SDS011;12992;50.884;13.668;2023-04-06T13:05:35;4.38;;;3.50;;
24961;SDS011;12992;50.884;13.668;2023-04-06T13:08:01;3.97;;;3.22;;
24961;SDS011;12992;50.884;13.668;2023-04-06T13:10:26;4.25;;;3.55;;
24961;SDS011;12992;50.884;13.668;2023-04-06T13:12:51;5.70;;;3.63;;
24961;SDS011;12992;50.884;13.668;2023-04-06T13:15:17;4.82;;;4.03;;
24961;SDS011;12992;50.884;13.668;2023-04-06T13:17:42;4.35;;;3.88;;
24961;SDS011;12992;50.884;13.668;2023-04-06T13:20:08;5.40;;;3.95;;
24961;SDS011;12992;50.884;13.668;2023-04-06T13:22:34;5.25;;;3.97;;
24961;SDS011;12992;50.884;13.668;2023-04-06T13:24:59;5.25;;;3.55;;
24961;SDS011;12992;50.884;13.668;2023-04-06T13:27:24;4.40;;;3.80;;
24961;SDS011;12992;50.884;13.668;2023-04-06T13:29:50;6.60;;;4.28;;
24961;SDS011;12992;50.884;13.668;2023-04-06T13:32:15;4.05;;;3.55;;
24961;SDS011;12992;50.884;13.668;2023-04-06T13:34:40;4.47;;;3.80;;
24961;SDS011;12992;50.884;13.668;2023-04-06T13:37:09;5.88;;;4.35;;
24961;SDS011;12992;50.884;13.668;2023-04-06T13:39:36;6.63;;;3.90;;
24961;SDS011;12992;50.884;13.668;2023-04-06T13:42:02;5.55;;;3.95;;
24961;SDS011;12992;50.884;13.668;2023-04-06T13:44:28;4.45;;;3.70;;
24961;SDS011;12992;50.884;13.668;2023-04-06T13:46:53;4.88;;;3.80;;
24961;SDS011;12992;50.884;13.668;2023-04-06T13:49:18;5.78;;;4.10;;
24961;SDS011;12992;50.884;13.668;2023-04-06T13:51:44;3.97;;;3.58;;
24961;SDS011;12992;50.884;13.668;2023-04-06T13:54:09;5.00;;;4.35;;
24961;SDS011;12992;50.884;13.668;2023-04-06T13:56:34;4.60;;;4.10;;
24961;SDS011;12992;50.884;13.668;2023-04-06T13:59:00;5.15;;;3.92;;
24961;SDS011;12992;50.884;13.668;2023-04-06T14:01:25;5.25;;;4.13;;
24961;SDS011;12992;50.884;13.668;2023-04-06T14:03:51;5.40;;;4.28;;
24961;SDS011;12992;50.884;13.668;2023-04-06T14:06:17;8.45;;;4.60;;
24961;SDS011;12992;50.884;13.668;2023-04-06T14:08:42;6.63;;;4.32;;
24961;SDS011;12992;50.884;13.668;2023-04-06T14:11:11;5.38;;;4.10;;
24961;SDS011;12992;50.884;13.668;2023-04-06T14:13:37;5.30;;;4.00;;
24961;SDS011;12992;50.884;13.668;2023-04-06T14:16:03;7.78;;;4.82;;
24961;SDS011;12992;50.884;13.668;2023-04-06T14:18:28;6.13;;;4.40;;
24961;SDS011;12992;50.884;13.668;2023-04-06T14:20:56;5.78;;;4.18;;
24961;SDS011;12992;50.884;13.668;2023-04-06T14:23:22;4.50;;;4.10;;
24961;SDS011;12992;50.884;13.668;2023-04-06T14:25:48;4.88;;;4.20;;
24961;SDS011;12992;50.884;13.668;2023-04-06T14:28:13;4.45;;;3.80;;
24961;SDS011;12992;50.884;13.668;2023-04-06T14:30:39;6.30;;;4.20;;
24961;SDS011;12992;50.884;13.668;2023-04-06T14:33:05;5.50;;;4.05;;
24961;SDS011;12992;50.884;13.668;2023-04-06T14:35:30;4.75;;;4.10;;
24961;SDS011;12992;50.884;13.668;2023-04-06T14:37:57;5.15;;;3.88;;
24961;SDS011;12992;50.884;13.668;2023-04-06T14:40:23;4.78;;;3.60;;
24961;SDS011;12992;50.884;13.668;2023-04-06T14:42:51;6.65;;;4.15;;
24961;SDS011;12992;50.884;13.668;2023-04-06T14:45:16;5.88;;;3.78;;
24961;SDS011;12992;50.884;13.668;2023-04-06T14:47:44;5.72;;;4.35;;
24961;SDS011;12992;50.884;13.668;2023-04-06T14:50:09;6.35;;;4.47;;